sensor_id;sensor_type;location;lat;lon;timestamp;pressure;altitude;pressure_sealevel;temperature;humidity
76297;BME280;65104;52.994;6.552;2023-10-08T00:01:15;102309.63;;;13.39;100.00
76297;BME280;65104;52.994;6.552;2023-10-08T00:03:42;102300.19;;;13.40;100.00
76297;BME280;65104;52.994;6.552;2023-10-08T00:06:18;102309.47;;;13.35;100.00
76297;BME280;65104;52.994;6.552;2023-10-08T00:08:45;102297.50;;;13.37;100.00
76297;BME280;65104;52.994;6.552;2023-10-08T00:11:10;102277.84;;;13.40;100.00
76297;BME280;65104;52.994;6.552;2023-10-08T00:13:36;102270.97;;;13.41;100.00
76297;BME280;65104;52.994;6.552;2023-10-08T00:16:14;102289.03;;;13.41;100.00
76297;BME280;65104;52.994;6.552;2023-10-08T00:18:44;102287.44;;;13.46;100.00
76297;BME280;65104;52.994;6.552;2023-10-08T00:21:20;102308.91;;;13.45;100.00
76297;BME280;65104;52.994;6.552;2023-10-08T00:23:51;102326.06;;;13.43;100.00
76297;BME280;65104;52.994;6.552;2023-10-08T00:26:23;102328.50;;;13.38;100.00
76297;BME280;65104;52.994;6.552;2023-10-08T00:31:31;102336.19;;;13.37;100.00
76297;BME280;65104;52.994;6.552;2023-10-08T00:34:02;102331.78;;;13.33;100.00
76297;BME280;65104;52.994;6.552;2023-10-08T00:36:30;102285.06;;;13.24;100.00
76297;BME280;65104;52.994;6.552;2023-10-08T00:38:56;102280.81;;;13.26;100.00
76297;BME280;65104;52.994;6.552;2023-10-08T00:41:25;102327.28;;;13.27;100.00
76297;BME280;65104;52.994;6.552;2023-10-08T00:43:56;102339.84;;;13.17;100.00
76297;BME280;65104;52.994;6.552;2023-10-08T00:46:22;102321.78;;;13.17;100.00
76297;BME280;65104;52.994;6.552;2023-10-08T00:48:52;102290.50;;;13.07;100.00
76297;BME280;65104;52.994;6.552;2023-10-08T00:51:23;102277.66;;;13.09;100.00
76297;BME280;65104;52.994;6.552;2023-10-08T00:53:56;102326.63;;;13.07;100.00
76297;BME280;65104;52.994;6.552;2023-10-08T00:56:29;102311.72;;;12.97;100.00
76297;BME280;65104;52.994;6.552;2023-10-08T00:59:13;102318.50;;;12.95;100.00
76297;BME280;65104;52.994;6.552;2023-10-08T01:01:40;102314.13;;;12.93;100.00
76297;BME280;65104;52.994;6.552;2023-10-08T01:04:05;102305.63;;;12.95;100.00
76297;BME280;65104;52.994;6.552;2023-10-08T01:06:38;102292.78;;;12.97;100.00
76297;BME280;65104;52.994;6.552;2023-10-08T01:09:05;102302.09;;;12.93;100.00
76297;BME280;65104;52.994;6.552;2023-10-08T01:11:42;102322.69;;;12.92;100.00
76297;BME280;65104;52.994;6.552;2023-10-08T01:14:15;102339.84;;;12.91;100.00
76297;BME280;65104;52.994;6.552;2023-10-08T01:16:41;102374.31;;;12.93;100.00
76297;BME280;65104;52.994;6.552;2023-10-08T01:19:11;102369.59;;;12.82;100.00
76297;BME280;65104;52.994;6.552;2023-10-08T01:21:40;102347.19;;;12.79;100.00
76297;BME280;65104;52.994;6.552;2023-10-08T01:24:06;102276.75;;;12.80;100.00
76297;BME280;65104;52.994;6.552;2023-10-08T01:26:33;102301.91;;;12.87;100.00
76297;BME280;65104;52.994;6.552;2023-10-08T01:28:59;102325.16;;;12.89;100.00
76297;BME280;65104;52.994;6.552;2023-10-08T01:31:29;102336.63;;;12.97;100.00
76297;BME280;65104;52.994;6.552;2023-10-08T01:33:55;102351.09;;;12.93;100.00
76297;BME280;65104;52.994;6.552;2023-10-08T01:36:25;102344.88;;;12.87;100.00
76297;BME280;65104;52.994;6.552;2023-10-08T01:38:51;102320.00;;;12.89;100.00
76297;BME280;65104;52.994;6.552;2023-10-08T01:41:17;102318.41;;;12.92;100.00
76297;BME280;65104;52.994;6.552;2023-10-08T01:43:47;102337.25;;;12.91;100.00
76297;BME280;65104;52.994;6.552;2023-10-08T01:46:15;102356.00;;;12.86;100.00
76297;BME280;65104;52.994;6.552;2023-10-08T01:48:41;102359.34;;;12.83;100.00
76297;BME280;65104;52.994;6.552;2023-10-08T01:51:10;102377.56;;;12.88;100.00
76297;BME280;65104;52.994;6.552;2023-10-08T01:53:39;102388.00;;;12.92;100.00
76297;BME280;65104;52.994;6.552;2023-10-08T01:56:06;102384.31;;;12.84;100.00
76297;BME280;65104;52.994;6.552;2023-10-08T01:58:31;102395.56;;;12.86;100.00
76297;BME280;65104;52.994;6.552;2023-10-08T02:00:58;102381.72;;;12.84;100.00
76297;BME280;65104;52.994;6.552;2023-10-08T02:03:25;102387.69;;;12.83;100.00
76297;BME280;65104;52.994;6.552;2023-10-08T02:05:53;102391.84;;;12.78;100.00
76297;BME280;65104;52.994;6.552;2023-10-08T02:08:19;102398.13;;;12.86;100.00
76297;BME280;65104;52.994;6.552;2023-10-08T02:10:45;102380.03;;;12.85;100.00
76297;BME280;65104;52.994;6.552;2023-10-08T02:13:13;102379.09;;;12.83;100.00
76297;BME280;65104;52.994;6.552;2023-10-08T02:15:45;102373.28;;;12.88;100.00
76297;BME280;65104;52.994;6.552;2023-10-08T02:18:11;102382.75;;;12.89;100.00
76297;BME280;65104;52.994;6.552;2023-10-08T02:20:39;102386.19;;;12.90;100.00
76297;BME280;65104;52.994;6.552;2023-10-08T02:23:05;102399.06;;;12.88;100.00
76297;BME280;65104;52.994;6.552;2023-10-08T02:25:31;102395.56;;;12.86;100.00
76297;BME280;65104;52.994;6.552;2023-10-08T02:27:56;102397.19;;;12.84;100.00
76297;BME280;65104;52.994;6.552;2023-10-08T02:30:22;102394.56;;;12.83;100.00
76297;BME280;65104;52.994;6.552;2023-10-08T02:32:48;102402.47;;;12.87;100.00
76297;BME280;65104;52.994;6.552;2023-10-08T02:35:15;102390.47;;;12.89;100.00
76297;BME280;65104;52.994;6.552;2023-10-08T02:37:40;102391.16;;;12.84;100.00
76297;BME280;65104;52.994;6.552;2023-10-08T02:40:09;102396.25;;;12.82;100.00
76297;BME280;65104;52.994;6.552;2023-10-08T02:43:01;102401.28;;;12.77;100.00
76297;BME280;65104;52.994;6.552;2023-10-08T02:45:29;102410.03;;;12.83;100.00
76297;BME280;65104;52.994;6.552;2023-10-08T02:47:55;102419.47;;;12.82;100.00
76297;BME280;65104;52.994;6.552;2023-10-08T02:50:21;102426.38;;;12.83;100.00
76297;BME280;65104;52.994;6.552;2023-10-08T02:52:50;102430.53;;;12.79;100.00
76297;BME280;65104;52.994;6.552;2023-10-08T02:55:17;102422.16;;;12.85;100.00
76297;BME280;65104;52.994;6.552;2023-10-08T02:57:53;102421.97;;;12.81;100.00
76297;BME280;65104;52.994;6.552;2023-10-08T03:00:19;102424.09;;;12.92;100.00
76297;BME280;65104;52.994;6.552;2023-10-08T03:02:46;102429.06;;;12.86;100.00
76297;BME280;65104;52.994;6.552;2023-10-08T03:05:11;102431.72;;;12.89;100.00
76297;BME280;65104;52.994;6.552;2023-10-08T03:07:38;102417.97;;;12.89;100.00
76297;BME280;65104;52.994;6.552;2023-10-08T03:10:05;102421.47;;;12.91;100.00
76297;BME280;65104;52.994;6.552;2023-10-08T03:12:35;102438.75;;;12.93;100.00
76297;BME280;65104;52.994;6.552;2023-10-08T03:15:02;102433.59;;;12.93;100.00
76297;BME280;65104;52.994;6.552;2023-10-08T03:17:55;102426.50;;;12.86;100.00
76297;BME280;65104;52.994;6.552;2023-10-08T03:20:22;102421.97;;;12.81;100.00
76297;BME280;65104;52.994;6.552;2023-10-08T03:23:04;102415.19;;;12.83;100.00
76297;BME280;65104;52.994;6.552;2023-10-08T03:25:39;102401.34;;;12.81;100.00
76297;BME280;65104;52.994;6.552;2023-10-08T03:28:10;102392.03;;;12.84;100.00
76297;BME280;65104;52.994;6.552;2023-10-08T03:30:38;102403.03;;;12.78;100.00
76297;BME280;65104;52.994;6.552;2023-10-08T03:33:13;102403.06;;;12.80;100.00
76297;BME280;65104;52.994;6.552;2023-10-08T03:35:47;102408.50;;;12.88;100.00
76297;BME280;65104;52.994;6.552;2023-10-08T03:38:13;102411.91;;;12.87;100.00
76297;BME280;65104;52.994;6.552;2023-10-08T03:40:56;102411.56;;;12.77;100.00
76297;BME280;65104;52.994;6.552;2023-10-08T03:43:34;102427.03;;;12.77;100.00
76297;BME280;65104;52.994;6.552;2023-10-08T03:46:00;102445.84;;;12.75;100.00
76297;BME280;65104;52.994;6.552;2023-10-08T03:48:32;102450.38;;;12.82;100.00
76297;BME280;65104;52.994;6.552;2023-10-08T03:51:02;102470.03;;;12.78;100.00
76297;BME280;65104;52.994;6.552;2023-10-08T03:53:34;102473.50;;;12.79;100.00
76297;BME280;65104;52.994;6.552;2023-10-08T03:56:07;102482.16;;;12.81;100.00
76297;BME280;65104;52.994;6.552;2023-10-08T03:58:33;102471.56;;;12.73;100.00
76297;BME280;65104;52.994;6.552;2023-10-08T04:01:06;102469.81;;;12.72;100.00
76297;BME280;65104;52.994;6.552;2023-10-08T04:03:36;102481.13;;;12.76;100.00
76297;BME280;65104;52.994;6.552;2023-10-08T04:06:24;102500.97;;;12.78;100.00
76297;BME280;65104;52.994;6.552;2023-10-08T04:09:12;102513.47;;;12.92;100.00
76297;BME280;65104;52.994;6.552;2023-10-08T04:11:43;102507.34;;;12.88;100.00
76297;BME280;65104;52.994;6.552;2023-10-08T04:14:20;102511.44;;;12.83;100.00
76297;BME280;65104;52.994;6.552;2023-10-08T04:16:46;102514.91;;;12.84;100.00
76297;BME280;65104;52.994;6.552;2023-10-08T04:19:16;102502.22;;;12.90;100.00
76297;BME280;65104;52.994;6.552;2023-10-08T04:21:43;102500.91;;;12.77;100.00
76297;BME280;65104;52.994;6.552;2023-10-08T04:24:11;102508.41;;;12.71;100.00
76297;BME280;65104;52.994;6.552;2023-10-08T04:26:39;102511.94;;;12.73;100.00
76297;BME280;65104;52.994;6.552;2023-10-08T04:29:06;102504.38;;;12.77;100.00
76297;BME280;65104;52.994;6.552;2023-10-08T04:31:35;102501.63;;;12.73;100.00
76297;BME280;65104;52.994;6.552;2023-10-08T04:34:12;102506.78;;;12.73;100.00
76297;BME280;65104;52.994;6.552;2023-10-08T04:36:48;102516.25;;;12.74;100.00
76297;BME280;65104;52.994;6.552;2023-10-08T04:39:23;102531.06;;;12.79;100.00
76297;BME280;65104;52.994;6.552;2023-10-08T04:41:56;102538.28;;;12.88;100.00
76297;BME280;65104;52.994;6.552;2023-10-08T04:44:27;102541.63;;;12.86;100.00
76297;BME280;65104;52.994;6.552;2023-10-08T04:46:57;102551.28;;;12.91;100.00
76297;BME280;65104;52.994;6.552;2023-10-08T04:49:29;102545.13;;;12.88;100.00
76297;BME280;65104;52.994;6.552;2023-10-08T04:52:02;102543.31;;;12.85;100.00
76297;BME280;65104;52.994;6.552;2023-10-08T04:54:34;102554.56;;;12.87;100.00
76297;BME280;65104;52.994;6.552;2023-10-08T04:57:06;102552.09;;;12.90;100.00
76297;BME280;65104;52.994;6.552;2023-10-08T04:59:31;102546.94;;;12.90;100.00
76297;BME280;65104;52.994;6.552;2023-10-08T05:02:04;102538.22;;;12.87;100.00
76297;BME280;65104;52.994;6.552;2023-10-08T05:04:51;102547.72;;;12.88;100.00
76297;BME280;65104;52.994;6.552;2023-10-08T05:07:17;102534.78;;;12.86;100.00
76297;BME280;65104;52.994;6.552;2023-10-08T05:09:47;102527.59;;;12.77;100.00
76297;BME280;65104;52.994;6.552;2023-10-08T05:12:31;102527.31;;;12.70;100.00
76297;BME280;65104;52.994;6.552;2023-10-08T05:15:15;102527.31;;;12.70;100.00
76297;BME280;65104;52.994;6.552;2023-10-08T05:17:41;102515.09;;;12.66;100.00
76297;BME280;65104;52.994;6.552;2023-10-08T05:20:16;102530.44;;;12.63;100.00
76297;BME280;65104;52.994;6.552;2023-10-08T05:22:56;102525.41;;;12.66;100.00
76297;BME280;65104;52.994;6.552;2023-10-08T05:25:31;102519.25;;;12.62;100.00
76297;BME280;65104;52.994;6.552;2023-10-08T05:28:19;102526.16;;;12.63;100.00
76297;BME280;65104;52.994;6.552;2023-10-08T05:30:50;102529.47;;;12.59;100.00
76297;BME280;65104;52.994;6.552;2023-10-08T05:33:20;102526.84;;;12.58;100.00
76297;BME280;65104;52.994;6.552;2023-10-08T05:36:09;102530.09;;;12.54;100.00
76297;BME280;65104;52.994;6.552;2023-10-08T05:38:44;102542.16;;;12.55;100.00
76297;BME280;65104;52.994;6.552;2023-10-08T05:41:27;102551.03;;;12.61;100.00
76297;BME280;65104;52.994;6.552;2023-10-08T05:44:16;102554.47;;;12.62;100.00
76297;BME280;65104;52.994;6.552;2023-10-08T05:46:44;102543.53;;;12.67;100.00
76297;BME280;65104;52.994;6.552;2023-10-08T05:49:16;102552.13;;;12.68;100.00
76297;BME280;65104;52.994;6.552;2023-10-08T05:52:02;102550.38;;;12.67;100.00
76297;BME280;65104;52.994;6.552;2023-10-08T05:54:27;102545.34;;;12.70;100.00
76297;BME280;65104;52.994;6.552;2023-10-08T05:56:53;102534.09;;;12.68;100.00
76297;BME280;65104;52.994;6.552;2023-10-08T06:02:27;102551.06;;;12.63;100.00
76297;BME280;65104;52.994;6.552;2023-10-08T06:05:10;102573.44;;;12.64;100.00
76297;BME280;65104;52.994;6.552;2023-10-08T06:07:41;102583.00;;;12.66;100.00
76297;BME280;65104;52.994;6.552;2023-10-08T06:10:32;102577.31;;;12.75;100.00
76297;BME280;65104;52.994;6.552;2023-10-08T06:18:22;102553.50;;;12.82;100.00
76297;BME280;65104;52.994;6.552;2023-10-08T06:21:04;102555.94;;;12.77;100.00
76297;BME280;65104;52.994;6.552;2023-10-08T06:23:39;102573.78;;;12.73;100.00
76297;BME280;65104;52.994;6.552;2023-10-08T06:26:04;102594.53;;;12.76;100.00
76297;BME280;65104;52.994;6.552;2023-10-08T06:28:50;102606.84;;;12.83;100.00
76297;BME280;65104;52.994;6.552;2023-10-08T06:31:22;102596.88;;;12.92;100.00
76297;BME280;65104;52.994;6.552;2023-10-08T06:33:50;102614.97;;;12.94;100.00
76297;BME280;65104;52.994;6.552;2023-10-08T06:36:15;102621.94;;;12.96;100.00
76297;BME280;65104;52.994;6.552;2023-10-08T06:38:46;102619.59;;;13.02;100.00
76297;BME280;65104;52.994;6.552;2023-10-08T06:41:15;102608.88;;;13.14;100.00
76297;BME280;65104;52.994;6.552;2023-10-08T06:43:44;102600.28;;;13.13;100.00
76297;BME280;65104;52.994;6.552;2023-10-08T06:46:29;102608.72;;;13.11;100.00
76297;BME280;65104;52.994;6.552;2023-10-08T06:49:02;102601.81;;;13.10;100.00
76297;BME280;65104;52.994;6.552;2023-10-08T06:51:28;102592.75;;;13.20;100.00
76297;BME280;65104;52.994;6.552;2023-10-08T06:53:55;102587.53;;;13.18;100.00
76297;BME280;65104;52.994;6.552;2023-10-08T06:56:24;102580.25;;;13.08;100.00
76297;BME280;65104;52.994;6.552;2023-10-08T06:58:49;102591.38;;;13.07;100.00
76297;BME280;65104;52.994;6.552;2023-10-08T07:01:19;102577.94;;;13.14;100.00
76297;BME280;65104;52.994;6.552;2023-10-08T07:03:53;102582.88;;;13.09;100.00
76297;BME280;65104;52.994;6.552;2023-10-08T07:06:28;102591.50;;;13.10;100.00
76297;BME280;65104;52.994;6.552;2023-10-08T07:08:57;102582.22;;;13.13;100.00
76297;BME280;65104;52.994;6.552;2023-10-08T07:11:25;102581.53;;;13.19;100.00
76297;BME280;65104;52.994;6.552;2023-10-08T07:13:51;102586.75;;;13.21;100.00
76297;BME280;65104;52.994;6.552;2023-10-08T07:16:17;102594.88;;;13.31;100.00
76297;BME280;65104;52.994;6.552;2023-10-08T07:18:44;102621.91;;;13.41;100.00
76297;BME280;65104;52.994;6.552;2023-10-08T07:21:21;102643.13;;;13.58;100.00
76297;BME280;65104;52.994;6.552;2023-10-08T07:23:55;102649.25;;;13.60;100.00
76297;BME280;65104;52.994;6.552;2023-10-08T07:26:29;102656.38;;;13.67;100.00
76297;BME280;65104;52.994;6.552;2023-10-08T07:29:15;102647.44;;;13.82;100.00
76297;BME280;65104;52.994;6.552;2023-10-08T07:31:45;102636.75;;;13.72;100.00
76297;BME280;65104;52.994;6.552;2023-10-08T07:34:16;102644.34;;;13.67;100.00
76297;BME280;65104;52.994;6.552;2023-10-08T07:36:45;102655.56;;;13.69;100.00
76297;BME280;65104;52.994;6.552;2023-10-08T07:39:12;102659.31;;;13.77;100.00
76297;BME280;65104;52.994;6.552;2023-10-08T07:41:56;102645.47;;;13.75;100.00
76297;BME280;65104;52.994;6.552;2023-10-08T07:44:22;102637.78;;;13.77;100.00
76297;BME280;65104;52.994;6.552;2023-10-08T07:46:52;102622.56;;;13.61;100.00
76297;BME280;65104;52.994;6.552;2023-10-08T07:49:20;102670.59;;;13.56;100.00
76297;BME280;65104;52.994;6.552;2023-10-08T07:51:46;102689.88;;;13.65;100.00
76297;BME280;65104;52.994;6.552;2023-10-08T07:54:22;102657.44;;;13.73;100.00
76297;BME280;65104;52.994;6.552;2023-10-08T07:56:53;102616.06;;;13.72;100.00
76297;BME280;65104;52.994;6.552;2023-10-08T07:59:24;102578.41;;;13.77;100.00
76297;BME280;65104;52.994;6.552;2023-10-08T08:01:50;102609.59;;;13.83;100.00
76297;BME280;65104;52.994;6.552;2023-10-08T08:04:17;102578.72;;;13.86;100.00
76297;BME280;65104;52.994;6.552;2023-10-08T08:06:51;102544.97;;;13.81;100.00
76297;BME280;65104;52.994;6.552;2023-10-08T08:09:18;102546.84;;;13.85;100.00
76297;BME280;65104;52.994;6.552;2023-10-08T08:11:48;102544.22;;;13.84;100.00
76297;BME280;65104;52.994;6.552;2023-10-08T08:14:15;102551.78;;;13.79;100.00
76297;BME280;65104;52.994;6.552;2023-10-08T08:16:42;102622.13;;;13.72;100.00
76297;BME280;65104;52.994;6.552;2023-10-08T08:19:10;102659.59;;;13.61;100.00
76297;BME280;65104;52.994;6.552;2023-10-08T08:21:38;102674.13;;;13.58;100.00
76297;BME280;65104;52.994;6.552;2023-10-08T08:24:03;102695.25;;;13.71;100.00
76297;BME280;65104;52.994;6.552;2023-10-08T08:26:31;102698.53;;;13.91;100.00
76297;BME280;65104;52.994;6.552;2023-10-08T08:29:06;102708.59;;;13.83;100.00
76297;BME280;65104;52.994;6.552;2023-10-08T08:31:35;102717.75;;;13.99;100.00
76297;BME280;65104;52.994;6.552;2023-10-08T08:34:02;102742.38;;;14.15;100.00
76297;BME280;65104;52.994;6.552;2023-10-08T08:36:39;102759.78;;;14.19;100.00
76297;BME280;65104;52.994;6.552;2023-10-08T08:39:11;102754.75;;;14.23;100.00
76297;BME280;65104;52.994;6.552;2023-10-08T08:41:37;102740.50;;;14.35;100.00
76297;BME280;65104;52.994;6.552;2023-10-08T08:44:03;102742.63;;;14.21;100.00
76297;BME280;65104;52.994;6.552;2023-10-08T08:46:35;102746.34;;;14.29;100.00
76297;BME280;65104;52.994;6.552;2023-10-08T08:49:06;102731.78;;;14.33;100.00
76297;BME280;65104;52.994;6.552;2023-10-08T08:51:33;102724.44;;;14.43;100.00
76297;BME280;65104;52.994;6.552;2023-10-08T08:54:02;102714.75;;;14.38;100.00
76297;BME280;65104;52.994;6.552;2023-10-08T08:56:33;102711.75;;;14.25;100.00
76297;BME280;65104;52.994;6.552;2023-10-08T08:59:01;102713.47;;;14.25;100.00
76297;BME280;65104;52.994;6.552;2023-10-08T09:01:28;102710.94;;;14.26;100.00
76297;BME280;65104;52.994;6.552;2023-10-08T09:04:02;102717.03;;;14.28;100.00
76297;BME280;65104;52.994;6.552;2023-10-08T09:06:37;102712.00;;;14.33;100.00
76297;BME280;65104;52.994;6.552;2023-10-08T09:09:05;102704.59;;;14.42;100.00
76297;BME280;65104;52.994;6.552;2023-10-08T09:11:49;102708.97;;;14.45;100.00
76297;BME280;65104;52.994;6.552;2023-10-08T09:14:22;102703.97;;;14.49;100.00
76297;BME280;65104;52.994;6.552;2023-10-08T09:16:51;102707.75;;;14.60;100.00
76297;BME280;65104;52.994;6.552;2023-10-08T09:19:18;102704.81;;;14.50;100.00
76297;BME280;65104;52.994;6.552;2023-10-08T09:22:10;102703.69;;;14.42;100.00
76297;BME280;65104;52.994;6.552;2023-10-08T09:24:39;102687.72;;;14.53;100.00
76297;BME280;65104;52.994;6.552;2023-10-08T09:27:10;102692.34;;;14.63;100.00
76297;BME280;65104;52.994;6.552;2023-10-08T09:29:49;102698.81;;;14.76;100.00
76297;BME280;65104;52.994;6.552;2023-10-08T09:32:15;102685.28;;;14.86;100.00
76297;BME280;65104;52.994;6.552;2023-10-08T09:34:49;102678.47;;;14.88;100.00
76297;BME280;65104;52.994;6.552;2023-10-08T09:37:20;102675.38;;;15.00;100.00
76297;BME280;65104;52.994;6.552;2023-10-08T09:39:49;102680.00;;;15.10;100.00
76297;BME280;65104;52.994;6.552;2023-10-08T09:42:19;102687.25;;;15.23;100.00
76297;BME280;65104;52.994;6.552;2023-10-08T09:44:48;102682.34;;;15.32;100.00
76297;BME280;65104;52.994;6.552;2023-10-08T09:47:21;102691.25;;;15.42;100.00
76297;BME280;65104;52.994;6.552;2023-10-08T09:49:57;102695.38;;;15.64;100.00
76297;BME280;65104;52.994;6.552;2023-10-08T09:55:11;102705.16;;;15.75;100.00
76297;BME280;65104;52.994;6.552;2023-10-08T09:57:38;102701.06;;;15.82;100.00
76297;BME280;65104;52.994;6.552;2023-10-08T10:00:07;102704.38;;;15.78;100.00
76297;BME280;65104;52.994;6.552;2023-10-08T10:02:44;102697.66;;;15.85;100.00
76297;BME280;65104;52.994;6.552;2023-10-08T10:05:12;102695.81;;;15.81;100.00
76297;BME280;65104;52.994;6.552;2023-10-08T10:07:40;102691.97;;;15.65;100.00
76297;BME280;65104;52.994;6.552;2023-10-08T10:10:28;102690.94;;;15.91;100.00
76297;BME280;65104;52.994;6.552;2023-10-08T10:13:09;102687.50;;;15.92;100.00
76297;BME280;65104;52.994;6.552;2023-10-08T10:15:42;102686.69;;;15.95;100.00
76297;BME280;65104;52.994;6.552;2023-10-08T10:20:56;102682.28;;;16.25;100.00
76297;BME280;65104;52.994;6.552;2023-10-08T10:23:39;102692.09;;;16.37;100.00
76297;BME280;65104;52.994;6.552;2023-10-08T10:26:34;102693.78;;;16.35;100.00
76297;BME280;65104;52.994;6.552;2023-10-08T10:29:19;102704.56;;;16.17;100.00
76297;BME280;65104;52.994;6.552;2023-10-08T10:31:49;102700.44;;;16.25;100.00
76297;BME280;65104;52.994;6.552;2023-10-08T10:34:27;102691.59;;;16.17;100.00
76297;BME280;65104;52.994;6.552;2023-10-08T10:36:58;102681.09;;;16.12;100.00
76297;BME280;65104;52.994;6.552;2023-10-08T10:39:26;102668.50;;;16.26;100.00
76297;BME280;65104;52.994;6.552;2023-10-08T10:41:55;102666.09;;;16.34;100.00
76297;BME280;65104;52.994;6.552;2023-10-08T10:44:27;102658.44;;;16.40;100.00
76297;BME280;65104;52.994;6.552;2023-10-08T10:46:58;102673.16;;;16.41;100.00
76297;BME280;65104;52.994;6.552;2023-10-08T10:49:42;102674.78;;;16.36;100.00
76297;BME280;65104;52.994;6.552;2023-10-08T10:52:29;102667.16;;;16.42;100.00
76297;BME280;65104;52.994;6.552;2023-10-08T10:55:14;102664.69;;;16.48;100.00
76297;BME280;65104;52.994;6.552;2023-10-08T10:57:54;102672.22;;;16.73;100.00
76297;BME280;65104;52.994;6.552;2023-10-08T11:00:45;102666.34;;;17.21;100.00
76297;BME280;65104;52.994;6.552;2023-10-08T11:03:11;102656.59;;;17.53;100.00
76297;BME280;65104;52.994;6.552;2023-10-08T11:05:58;102647.72;;;17.87;100.00
76297;BME280;65104;52.994;6.552;2023-10-08T11:08:26;102629.28;;;18.26;100.00
76297;BME280;65104;52.994;6.552;2023-10-08T11:11:01;102619.09;;;18.40;100.00
76297;BME280;65104;52.994;6.552;2023-10-08T11:13:33;102601.53;;;18.23;100.00
76297;BME280;65104;52.994;6.552;2023-10-08T11:16:08;102604.00;;;18.14;100.00
76297;BME280;65104;52.994;6.552;2023-10-08T11:18:44;102600.53;;;18.17;100.00
76297;BME280;65104;52.994;6.552;2023-10-08T11:21:13;102596.91;;;18.04;100.00
76297;BME280;65104;52.994;6.552;2023-10-08T11:23:48;102598.47;;;18.53;100.00
76297;BME280;65104;52.994;6.552;2023-10-08T11:26:35;102607.06;;;18.46;100.00
76297;BME280;65104;52.994;6.552;2023-10-08T11:29:06;102601.81;;;18.45;100.00
76297;BME280;65104;52.994;6.552;2023-10-08T11:31:40;102612.81;;;18.25;100.00
76297;BME280;65104;52.994;6.552;2023-10-08T11:34:07;102610.69;;;18.00;100.00
76297;BME280;65104;52.994;6.552;2023-10-08T11:36:39;102613.28;;;18.00;100.00
76297;BME280;65104;52.994;6.552;2023-10-08T11:39:19;102603.56;;;17.90;100.00
76297;BME280;65104;52.994;6.552;2023-10-08T11:42:02;102609.44;;;17.77;100.00
76297;BME280;65104;52.994;6.552;2023-10-08T11:44:31;102609.94;;;17.59;100.00
76297;BME280;65104;52.994;6.552;2023-10-08T11:47:03;102601.56;;;17.74;100.00
76297;BME280;65104;52.994;6.552;2023-10-08T11:49:47;102594.63;;;17.71;100.00
76297;BME280;65104;52.994;6.552;2023-10-08T11:52:16;102592.09;;;17.76;100.00
76297;BME280;65104;52.994;6.552;2023-10-08T11:54:44;102590.38;;;17.76;100.00
76297;BME280;65104;52.994;6.552;2023-10-08T11:57:13;102586.56;;;17.59;100.00
76297;BME280;65104;52.994;6.552;2023-10-08T11:59:40;102577.84;;;18.05;100.00
76297;BME280;65104;52.994;6.552;2023-10-08T12:02:08;102574.03;;;18.41;100.00
76297;BME280;65104;52.994;6.552;2023-10-08T12:04:34;102574.72;;;18.91;100.00
76297;BME280;65104;52.994;6.552;2023-10-08T12:07:02;102576.41;;;18.89;100.00
76297;BME280;65104;52.994;6.552;2023-10-08T12:09:33;102575.75;;;19.06;100.00
76297;BME280;65104;52.994;6.552;2023-10-08T12:12:05;102580.84;;;18.94;100.00
76297;BME280;65104;52.994;6.552;2023-10-08T12:14:37;102576.41;;;18.86;100.00
76297;BME280;65104;52.994;6.552;2023-10-08T12:17:03;102582.75;;;18.44;100.00
76297;BME280;65104;52.994;6.552;2023-10-08T12:19:37;102573.78;;;18.25;100.00
76297;BME280;65104;52.994;6.552;2023-10-08T12:22:07;102577.88;;;18.08;100.00
76297;BME280;65104;52.994;6.552;2023-10-08T12:24:36;102579.53;;;18.03;100.00
76297;BME280;65104;52.994;6.552;2023-10-08T12:27:05;102592.91;;;17.73;100.00
76297;BME280;65104;52.994;6.552;2023-10-08T12:29:31;102591.97;;;17.68;100.00
76297;BME280;65104;52.994;6.552;2023-10-08T12:31:59;102600.78;;;17.78;100.00
76297;BME280;65104;52.994;6.552;2023-10-08T12:34:25;102603.41;;;17.81;100.00
76297;BME280;65104;52.994;6.552;2023-10-08T12:36:51;102600.84;;;17.82;100.00
76297;BME280;65104;52.994;6.552;2023-10-08T12:39:17;102598.47;;;17.94;100.00
76297;BME280;65104;52.994;6.552;2023-10-08T12:41:44;102604.59;;;17.99;100.00
76297;BME280;65104;52.994;6.552;2023-10-08T12:44:14;102598.97;;;18.25;100.00
76297;BME280;65104;52.994;6.552;2023-10-08T12:46:41;102592.50;;;18.57;100.00
76297;BME280;65104;52.994;6.552;2023-10-08T12:49:11;102579.88;;;18.86;100.00
76297;BME280;65104;52.994;6.552;2023-10-08T12:51:38;102575.75;;;19.06;100.00
76297;BME280;65104;52.994;6.552;2023-10-08T12:54:08;102576.81;;;19.21;100.00
76297;BME280;65104;52.994;6.552;2023-10-08T12:56:37;102575.19;;;19.35;100.00
76297;BME280;65104;52.994;6.552;2023-10-08T12:59:21;102567.53;;;19.47;100.00
76297;BME280;65104;52.994;6.552;2023-10-08T13:01:50;102560.72;;;19.61;100.00
76297;BME280;65104;52.994;6.552;2023-10-08T13:04:22;102559.84;;;19.58;100.00
76297;BME280;65104;52.994;6.552;2023-10-08T13:06:55;102566.00;;;19.66;100.00
76297;BME280;65104;52.994;6.552;2023-10-08T13:09:23;102557.47;;;19.90;100.00
76297;BME280;65104;52.994;6.552;2023-10-08T13:11:50;102566.22;;;19.98;100.00
76297;BME280;65104;52.994;6.552;2023-10-08T13:14:16;102566.16;;;19.85;100.00
76297;BME280;65104;52.994;6.552;2023-10-08T13:16:42;102559.84;;;19.59;100.00
76297;BME280;65104;52.994;6.552;2023-10-08T13:19:11;102567.38;;;19.32;100.00